Relevés horaires Antwerpen / Deurne (Belgique)


Relevés horaires à Antwerpen / Deurne - Mercredi 24 Mai 2017
Heure UTC1 Température [°C] Vent [km/h] Hum. [%] Pres.4 [hPa] Visi. [Km] Nébu. [octa] Préc.5 [mm] Cond.
2m. Res. Ros. Dir.2 Vit. Moy. Raf.3
23:00 15.1 15.1 11.9 NNO 5.6 5.6 7.4 81 1025.6(0.4/3h) 23 0/8 -- --
22:00 15.7 15.7 12.2 N 5.6 7.4 9.3 80 1025.6(0.6/3h) 35 0/8 -- --
21:00 16.7 16.7 12.3 NNO 7.4 11.1 14.8 75 1025.5(0.5/3h) 35 5/8 -- --
20:00 17.6 17.6 12.5 NNO 7.4 11.1 14.8 72 1025.2(0.3/3h) 35 5/8 -- --
19:00 18.8 18.8 12.7 NNO 9.3 11.1 14.8 68 1025(0.0/3h) 35 6/8 -- --
18:00 19.7 19.7 12.6 NO 9.3 13.0 18.5 64 1025(-0.1/3h) 35 6/8 0/12h
--
17:00 20.5 20.5 10.6 NO 11.1 13.0 16.7 53 1024.9(-0.1/3h) 35 6/8 -- --
16:00 21.6 21.6 9.5 NO 13.0 13.0 16.7 46 1024.9(0.0/3h) 30 6/8 -- --
15:00 22.4 22.4 8.1 NO 11.1 13.0 18.5 40 1025(0.0/3h) 30 6/8 -- --
14:00 22.5 22.5 6.8 NO 13.0 13.0 18.5 36 1025(0.0/3h) 30 5/8 -- --
13:00 22.7 22.7 9.1 NNO 11.1 11.1 18.5 42 1024.9(-0.2/3h) 30 6/8 -- --
12:00 22.6 22.6 9.4 NO 11.1 13.0 20.4 43 1024.9(0.0/3h) 25 5/8 0/6h
--
11:00 21.4 21.4 13.7 ONO 7.4 9.3 13.0 62 1024.9(0.0/3h) 25 5/8 -- --
10:00 20.2 20.2 13.5 NO 5.6 7.4 11.1 65 1025.1(0.3/3h) 20 7/8 -- --
09:00 20.1 20.1 14.0 ONO 7.4 7.4 11.1 68 1025.1(0.6/3h) 12 6/8 -- --
08:00 18.7 18.7 14.1 O 7.4 7.4 11.1 75 1025(0.9/3h) 12 5/8 -- --
07:00 17.1 17.1 13.4 O 5.6 5.6 9.3 79 1024.9(1.0/3h) 12 6/8 -- --
06:00 15.2 15.2 12.7 O 5.6 5.6 9.3 85 1024.4(0.6/3h) 12 6/8 0/12h
--
05:00 14.0 14.0 12.1 O 3.7 3.7 7.4 88 1024.2(0.4/3h) 20 6/8 -- --
04:00 13.9 13.9 11.8 O 3.7 5.6 7.4 87 1023.9(0.0/3h) 10 0/8 -- --
03:00 14.3 14.3 11.3 O 5.6 5.6 7.4 82 1023.8(-0.5/3h) 16 0/8 -- --
02:00 14.8 14.8 10.9 SO 1.9 3.7 5.6 77 1023.8(-0.3/3h) 28 0/8 -- --
01:00 12.9 12.9 9.5 SSO 1.9 3.7 3.7 80 1023.9(0.2/3h) 35 1/8 -- --
00:00 13.3 13.3 9.9 SO 1.9 5.6 11.1 80 1024.4(0.4/3h) 45 6/8 0/6h
0/24h
--

1 Coordinated Universal Time. Actuellement il est 12:00 locale et 11:00 UTC.

2 Le vent souffle depuis la direction indiquée vers la direction oposée.

3 Les rafales max. sont disponible 40 min après l'heure du relevé.

4 Pour les stations d'altitude (plus de 600m) le géopotentiel du niveau le plus proche de la pression obligatoire est indiqué.

5 Les stations disposant d'un diffuseur peuvent indiquer "trace". Cela signifie que des précipitations ont touchés le sol mais que la quantité est inférieure à 0.1 mm.

Récapitulatif de la journée
Température [°C] Vent [km/h] Ensoleillement4 [h] Precipitations totale5 [mm] Pression [Hpa]
Min1 Max.2 Moy.3 Max. Min Max.
12.4 23.3 8.6 20.4 0 h 0 min 0 1023.8 1025.6

1 Température minimale relevée entre 18:00 UTC la veille et 18:00 UTC le jour donné.

2 Température maximale relevée entre 06:00 UTC le jour donné et 06:00 UTC le lendemain.

3 Vent moyen de la journée basé sur les relevés horaires.

4 Ensoleillement en heures relevé entre 06:00 UTC la veille et 06:00 UTC le jour donné.

5 Précipitations totales tombées entre 06:00 UTC la jour donné et 06:00 UTC le lendemain.

Graphiques horaires